• Join FlightAware (Why Join?)
  • Login
  • US Flag 
12:25AM EDT


 

Airport Tracker/Info


-or-


 

Live Flight TrackerFlight Track Log ✈ EGF3793 ✈ 12-May-2013 ✈ KORD - KOKC

Flight Track Log - Related Links

Times and Time Zones

All times are in EDT time to prevent confusion due to time zone crossing. See the EGF3793 flight status page for this flight to view local times or setup timezone preferences in your user account.

Time Position Orientation Groundspeed Altitude Reporting Facility
EDT Latitude Longitude Course Direction KTS MPH feet Rate Location/Type
11:29PM 42.0333 -87.9667 253° West 192 221 3,900  Level Chicago TRACON
11:30PM 41.9000 -88.2130 270° West  Level FlightAware Approximate
11:30PM 42.0833 -88.0167 323° Northwest 254 292 5,700  Level Chicago TRACON
11:31PM 41.8625 -88.3687 242° Southwest  Level FlightAware Approximate
11:32PM 41.8241 -88.5252 254° West  Level FlightAware Approximate
11:32PM 42.0458 -88.1894 254° West 266 306 11,200  Level Chicago Center
11:33PM 41.7890 -88.6838 254° West  Level FlightAware Approximate
11:33PM 42.0069 -88.2817 240° Southwest 283 326 14,000  Level Chicago Center
11:34PM 41.7565 -88.8301 253° West  Level FlightAware Approximate
11:34PM 41.9667 -88.3778 241° Southwest 293 337 16,400  Level Chicago Center
11:35PM 41.9364 -88.4808 248° West 298 343 18,800 1,920 Climbing Chicago Center
11:36PM 41.9075 -88.5864 250° West 303 349 20,400 1,140 Climbing Chicago Center
11:37PM 41.8739 -88.7075 250° West 343 395 21,200 780 Climbing Chicago Center
11:38PM 41.8372 -88.8397 250° West 376 433 22,000 780 Climbing Chicago Center
11:39PM 41.7975 -88.9833 250° West 408 470 22,800 1,020 Climbing Chicago Center
11:40PM 41.7467 -89.1608 249° West 429 494 24,100 1,140 Climbing Chicago Center
11:41PM 41.7058 -89.3125 250° West 435 501 25,200 1,020 Climbing Chicago Center
11:42PM 41.6653 -89.4636 250° West 436 502 26,200 960 Climbing Chicago Center
11:43PM 41.6181 -89.6211 248° West 452 520 27,200 960 Climbing Chicago Center
11:44PM 41.5725 -89.7814 249° West 463 533 28,200 960 Climbing Chicago Center
11:45PM 41.5264 -89.9389 249° West 461 531 29,200 960 Climbing Chicago Center
11:46PM 41.4800 -90.0989 249° West 463 533 30,200 960 Climbing Chicago Center
11:47PM 41.4333 -90.2597 249° West 466 536 31,200 960 Climbing Chicago Center
11:48PM 41.3853 -90.4206 248° West 469 540 32,200 960 Climbing Chicago Center
11:49PM 41.3378 -90.5822 249° West 471 542 33,200 840 Climbing Chicago Center
11:50PM 41.2569 -90.7325 234° Southwest 499 574 34,000 720 Climbing Chicago Center
11:51PM 41.1653 -90.8789 230° Southwest 516 594 34,700 660 Climbing Chicago Center
11:52PM 41.0725 -91.0250 230° Southwest 520 598 35,400 660 Climbing Chicago Center
11:53PM 40.9797 -91.1714 230° Southwest 521 600 36,100 720 Climbing Chicago Center
11:54PM 40.8769 -91.3283 229° Southwest 521 600 36,900 720 Climbing Chicago Center
11:55PM 40.7867 -91.4700 230° Southwest 511 588 37,600 540 Climbing Chicago Center
11:56PM 40.6964 -91.6094 230° Southwest 505 581 38,000 180 Climbing Chicago Center
11:57PM 40.6233 -91.7192 229° Southwest 502 578 38,000  Level Kansas City Center
11:58PM 40.5342 -91.8561 229° Southwest 499 574 38,000  Level Kansas City Center
11:59PM 40.4267 -92.0203 229° Southwest 495 570 38,000  Level Kansas City Center
12:00AM 40.3369 -92.1558 229° Southwest 494 568 38,000  Level Kansas City Center
12:01AM 40.2467 -92.2928 229° Southwest 495 570 38,000  Level Kansas City Center
12:02AM 40.1639 -92.4142 228° Southwest 490 564 38,000  Level Kansas City Center
12:03AM 40.0631 -92.5658 229° Southwest 493 567 38,000  Level Kansas City Center
12:04AM 39.9656 -92.6967 226° Southwest 502 578 38,000  Level Kansas City Center
12:05AM 39.8597 -92.8156 221° Southwest 507 583 38,000  Level Kansas City Center
12:06AM 39.7564 -92.9394 223° Southwest 506 582 38,000  Level Kansas City Center
12:07AM 39.6511 -93.0633 222° Southwest 512 589 38,000  Level Kansas City Center
12:08AM 39.5461 -93.1800 221° Southwest 505 581 38,000  Level Kansas City Center
12:09AM 39.4397 -93.3000 221° Southwest 508 585 38,000  Level Kansas City Center
12:10AM 39.3344 -93.4203 221° Southwest 509 586 38,000  Level Kansas City Center
12:11AM 39.2281 -93.5450 222° Southwest 505 581 38,000  Level Kansas City Center
12:12AM 39.1264 -93.6600 221° Southwest 507 583 38,000  Level Kansas City Center
12:13AM 39.0067 -93.7961 221° Southwest 511 588 38,000  Level Kansas City Center
12:14AM 38.9022 -93.9108 221° Southwest 513 590 38,000  Level Kansas City Center
12:15AM 38.7994 -94.0275 222° Southwest 514 592 38,000  Level Kansas City Center
12:16AM 38.6956 -94.1433 221° Southwest 514 592 38,000  Level Kansas City Center
12:17AM 38.5739 -94.2775 221° Southwest 513 590 38,000  Level Kansas City Center
12:18AM 38.4700 -94.3925 221° Southwest 514 592 38,000  Level Kansas City Center
12:19AM 38.3658 -94.5056 220° Southwest 514 592 38,000  Level Kansas City Center
12:20AM 38.2447 -94.6381 221° Southwest 511 588 38,000  Level Kansas City Center
12:21AM 38.1394 -94.7531 221° Southwest 515 593 38,000  Level Kansas City Center
12:22AM 38.0350 -94.8647 220° Southwest 513 590 38,000  Level Kansas City Center
12:23AM 37.9306 -94.9772 220° Southwest 513 590 38,000  Level Kansas City Center
12:24AM 37.8089 -95.1081 220° Southwest 513 590 38,000  Level Kansas City Center
12:25AM 37.7036 -95.2228 221° Southwest 515 593 38,000  Level Kansas City Center
12:26AM 37.5950 -95.3394 220° Southwest 515 593 38,000  Level Kansas City Center
12:27AM 37.4861 -95.4556 220° Southwest 513 590 38,000  Level Kansas City Center
12:28AM 37.3781 -95.5722 221° Southwest 513 590 38,000  Level Kansas City Center
12:29AM 37.2689 -95.6875 220° Southwest 512 589 38,000  Level Kansas City Center
12:30AM 37.1592 -95.8031 220° Southwest 514 592 38,000  Level Kansas City Center
12:31AM 37.0508 -95.9167 220° Southwest 512 589 38,000  Level Kansas City Center
12:32AM 36.9406 -96.0314 220° Southwest 515 593 38,000  Level Kansas City Center
12:33AM 36.8314 -96.1444 220° Southwest 514 592 38,000 -240 Level Kansas City Center
12:34AM 36.7219 -96.2592 220° Southwest 515 593 37,600 -1,620 Descending Kansas City Center
12:35AM 36.6136 -96.3700 219° Southwest 511 588 34,800 -3,300 Descending Kansas City Center
12:36AM 36.5067 -96.4806 220° Southwest 506 582 31,000 -3,720 Descending Kansas City Center
12:37AM 36.3967 -96.5933 220° Southwest 508 585 27,300 -3,180 Descending Kansas City Center
12:38AM 36.2897 -96.7000 219° Southwest 504 580 24,700 -3,240 Descending Kansas City Center
12:39AM 36.1967 -96.7964 220° Southwest 471 542 20,800 -3,540 Descending Kansas City Center
12:40AM 36.1056 -96.8883 219° Southwest 434 499 17,600 -3,300 Descending Kansas City Center
12:41AM 36.0186 -96.9767 219° Southwest 415 478 14,300 -2,820 Descending Kansas City Center
12:42AM 35.9367 -97.0597 219° Southwest 391 450 12,000 -2,040 Descending Kansas City Center
12:43AM 35.8611 -97.1481 223° Southwest 321 369 10,200 -1,860 Descending Kansas City Center
12:44AM 35.8356 -97.1756 221° Southwest 271 312 9,500 -1,620 Descending Fort Worth Center
12:45AM 35.7856 -97.2397 226° Southwest 259 298 8,000 -1,260 Descending Fort Worth Center
12:46AM 35.7314 -97.3011 223° Southwest 260 299 7,000 -1,140 Descending Fort Worth Center
12:47AM 35.6814 -97.3572 222° Southwest 254 292 5,800 -1,080 Descending Fort Worth Center
12:48AM 35.6314 -97.4161 224° Southwest 236 272 4,900 -840 Descending Fort Worth Center
12:49AM 35.5833 -97.4697 222° Southwest 237 273 4,200 -480 Descending Fort Worth Center
12:50AM 35.5333 -97.5283 224° Southwest 212 244 4,000 -480 Descending Fort Worth Center
12:51AM 35.4958 -97.5717 223° Southwest 194 223 3,200 -840 Descending Fort Worth Center
12:52AM 35.4644 -97.5919 208° Southwest 107 123 2,400 -840 Descending Fort Worth Center